createdAt,value
2022-11-15T00:02:13.344Z,98594.91
2022-11-15T00:04:38.554Z,98592.94
2022-11-15T00:07:03.894Z,98590.47
2022-11-15T00:09:29.822Z,98593.19
2022-11-15T00:11:56.266Z,98586.44
2022-11-15T00:14:21.718Z,98577.94
2022-11-15T00:16:50.554Z,98585.78
2022-11-15T00:19:15.733Z,98584.84
2022-11-15T00:21:41.270Z,98573.72
2022-11-15T00:24:09.819Z,98572.72
2022-11-15T00:26:35.142Z,98576.09
2022-11-15T00:29:00.563Z,98571.00
2022-11-15T00:31:27.850Z,98574.69
2022-11-15T00:33:55.851Z,98568.66
2022-11-15T00:36:21.000Z,98568.81
2022-11-15T00:38:47.219Z,98560.25
2022-11-15T00:41:12.623Z,98549.03
2022-11-15T00:43:37.737Z,98561.38
2022-11-15T00:46:04.026Z,98544.00
2022-11-15T00:48:29.387Z,98544.00
2022-11-15T00:50:57.150Z,98537.31
2022-11-15T00:53:23.572Z,98529.06
2022-11-15T00:55:48.954Z,98544.63
2022-11-15T00:58:14.030Z,98539.53
2022-11-15T01:00:40.242Z,98538.13
2022-11-15T01:03:07.890Z,98536.44
2022-11-15T01:05:32.970Z,98546.09
2022-11-15T01:08:03.620Z,98539.31
2022-11-15T01:10:29.137Z,98540.22
2022-11-15T01:12:54.755Z,98532.34
2022-11-15T01:15:21.123Z,98535.84
2022-11-15T01:17:47.128Z,98527.25
2022-11-15T01:20:15.386Z,98529.25
2022-11-15T01:22:41.472Z,98523.38
2022-11-15T01:25:11.654Z,98459.03
2022-11-15T01:27:36.743Z,98523.59
2022-11-15T01:30:03.241Z,98520.13
2022-11-15T01:32:28.746Z,98512.28
2022-11-15T01:34:53.959Z,98507.06
2022-11-15T01:37:19.930Z,98507.03
2022-11-15T01:39:45.300Z,98506.03
2022-11-15T01:42:17.323Z,98499.88
2022-11-15T01:44:50.066Z,98500.94
2022-11-15T01:47:22.010Z,98496.91
2022-11-15T01:50:00.956Z,98491.09
2022-11-15T01:52:32.930Z,98482.81
2022-11-15T01:55:08.164Z,98487.16
2022-11-15T01:57:36.175Z,98480.31
2022-11-15T02:00:07.335Z,98475.09
2022-11-15T02:02:33.017Z,98470.78
2022-11-15T02:04:58.870Z,98476.81
2022-11-15T02:07:26.955Z,98475.88
2022-11-15T02:09:54.832Z,98470.53
2022-11-15T02:12:25.039Z,98467.03
2022-11-15T02:14:59.021Z,98467.81
2022-11-15T02:17:53.216Z,98470.28
2022-11-15T02:20:47.437Z,98458.25
2022-11-15T02:24:03.245Z,98451.50
2022-11-15T02:27:17.905Z,98447.19
2022-11-15T02:30:18.441Z,98446.28
2022-11-15T02:32:55.077Z,98455.88
2022-11-15T02:35:39.161Z,98451.50
2022-11-15T02:38:22.044Z,98452.34
2022-11-15T02:41:03.310Z,98455.00
2022-11-15T02:43:59.075Z,98442.91
2022-11-15T02:46:54.028Z,98443.78
2022-11-15T02:49:21.394Z,98441.44
2022-11-15T02:51:52.649Z,98430.09
2022-11-15T02:54:26.136Z,98435.41
2022-11-15T02:56:58.826Z,98366.84
2022-11-15T02:59:56.516Z,98416.50
2022-11-15T03:02:56.922Z,98422.41
2022-11-15T03:05:38.656Z,98418.75
2022-11-15T03:08:14.905Z,98418.75
2022-11-15T03:10:56.330Z,98423.97
2022-11-15T03:13:37.831Z,98417.78
2022-11-15T03:16:13.717Z,98416.94
2022-11-15T03:18:51.800Z,98414.38
2022-11-15T03:21:23.935Z,98415.09
2022-11-15T03:23:58.268Z,98415.19
2022-11-15T03:26:29.557Z,98404.78
2022-11-15T03:29:05.895Z,98401.41
2022-11-15T03:31:51.831Z,98397.25
2022-11-15T03:34:33.733Z,98391.22
2022-11-15T03:36:59.549Z,98394.75
2022-11-15T03:39:28.668Z,98391.34
2022-11-15T03:42:13.314Z,98387.97
2022-11-15T03:44:52.063Z,98381.97
2022-11-15T03:47:27.805Z,98380.34
2022-11-15T03:50:04.481Z,98377.00
2022-11-15T03:52:30.230Z,98378.19
2022-11-15T03:54:59.806Z,98376.66
2022-11-15T03:57:25.527Z,98375.19
2022-11-15T03:59:50.925Z,98365.03
2022-11-15T04:02:17.769Z,98361.63
2022-11-15T04:04:42.982Z,98371.16
2022-11-15T04:07:11.393Z,98363.34
2022-11-15T04:09:57.872Z,98355.31
2022-11-15T04:12:32.002Z,98346.66
2022-11-15T04:15:10.649Z,98354.06
2022-11-15T04:17:36.232Z,98357.47
2022-11-15T04:20:17.564Z,98352.13
2022-11-15T04:23:01.085Z,98357.34
2022-11-15T04:25:32.100Z,98345.06
2022-11-15T04:27:57.869Z,98348.50
2022-11-15T04:30:23.051Z,98347.56
2022-11-15T04:32:49.473Z,98337.19
2022-11-15T04:35:14.454Z,98337.06
2022-11-15T04:37:36.672Z,98321.09
2022-11-15T04:40:06.586Z,98339.72
2022-11-15T04:42:32.166Z,98341.44
2022-11-15T04:44:57.183Z,98336.22
2022-11-15T04:47:23.360Z,98336.91
2022-11-15T04:49:48.429Z,98330.72
2022-11-15T04:52:14.234Z,98329.81
2022-11-15T04:54:40.090Z,98328.91
2022-11-15T04:57:10.273Z,98332.41
2022-11-15T04:59:35.295Z,98323.69
2022-11-15T05:02:01.526Z,98320.03
2022-11-15T05:04:24.718Z,98314.81
2022-11-15T05:06:51.147Z,98313.09
2022-11-15T05:09:17.764Z,98316.66
2022-11-15T05:11:43.118Z,98304.50
2022-11-15T05:14:11.439Z,98311.44
2022-11-15T05:16:38.145Z,98309.72
2022-11-15T05:19:04.216Z,98311.44
2022-11-15T05:21:29.282Z,98304.50
2022-11-15T05:23:55.806Z,98301.91
2022-11-15T05:26:22.790Z,98307.97
2022-11-15T05:28:49.182Z,98302.84
2022-11-15T05:31:20.456Z,98292.41
2022-11-15T05:33:48.761Z,98290.78
2022-11-15T05:36:25.650Z,98289.16
2022-11-15T05:38:53.896Z,98224.75
2022-11-15T05:41:26.657Z,98285.03
2022-11-15T05:43:54.520Z,98273.91
2022-11-15T05:46:23.403Z,98276.50
2022-11-15T05:48:54.646Z,98274.97
2022-11-15T05:51:26.552Z,98261.31
2022-11-15T05:53:54.132Z,98276.63
2022-11-15T05:56:20.786Z,98266.41
2022-11-15T05:58:47.299Z,98272.34
2022-11-15T06:01:13.578Z,98272.34
2022-11-15T06:03:42.275Z,98270.78
2022-11-15T06:06:15.100Z,98272.59
2022-11-15T06:08:42.652Z,98272.59
2022-11-15T06:11:10.731Z,98273.47
2022-11-15T06:13:36.100Z,98274.31
2022-11-15T06:16:04.951Z,98279.38
2022-11-15T06:18:31.063Z,98278.38
2022-11-15T06:21:03.983Z,98280.00
2022-11-15T06:23:30.637Z,98278.97
2022-11-15T06:25:56.010Z,98283.13
2022-11-15T06:28:20.887Z,98283.75
2022-11-15T06:30:51.941Z,98281.97
2022-11-15T06:33:18.439Z,98283.50
2022-11-15T06:35:43.799Z,98286.13
2022-11-15T06:38:15.233Z,98286.88
2022-11-15T06:40:42.682Z,98291.97
2022-11-15T06:43:11.328Z,98303.03
2022-11-15T06:45:38.062Z,98297.78
2022-11-15T06:48:04.058Z,98255.63
2022-11-15T06:50:29.507Z,98306.94
2022-11-15T06:52:56.527Z,98295.81
2022-11-15T06:55:24.697Z,98304.91
2022-11-15T06:57:55.810Z,98299.59
2022-11-15T07:00:25.261Z,98315.25
2022-11-15T07:02:51.190Z,98308.19
2022-11-15T07:05:17.751Z,98311.59
2022-11-15T07:07:44.499Z,98309.78
2022-11-15T07:10:11.735Z,98311.31
2022-11-15T07:12:40.256Z,98299.06
2022-11-15T07:15:08.679Z,98294.66
2022-11-15T07:17:33.877Z,98295.50
2022-11-15T07:19:59.378Z,98289.44
2022-11-15T07:22:25.426Z,98294.38
2022-11-15T07:24:50.548Z,98296.09
2022-11-15T07:27:16.059Z,98295.09
2022-11-15T07:29:46.296Z,98299.34
2022-11-15T07:32:11.620Z,98286.19
2022-11-15T07:34:37.233Z,98296.34
2022-11-15T07:37:05.142Z,98289.06
2022-11-15T07:39:30.418Z,98286.94
2022-11-15T07:42:15.355Z,98277.97
2022-11-15T07:44:42.004Z,98277.69
2022-11-15T07:47:14.157Z,98279.25
2022-11-15T07:49:39.510Z,98280.81
2022-11-15T07:52:08.568Z,98282.19
2022-11-15T07:54:34.112Z,98281.91
2022-11-15T07:57:04.050Z,98284.34
2022-11-15T07:59:31.480Z,98280.59
2022-11-15T08:01:56.665Z,98284.66
2022-11-15T08:04:25.701Z,98281.00
2022-11-15T08:06:51.659Z,98272.16
2022-11-15T08:09:16.991Z,98270.22
2022-11-15T08:11:41.987Z,98264.97
2022-11-15T08:14:10.837Z,98269.16
2022-11-15T08:16:35.935Z,98265.53
2022-11-15T08:19:01.388Z,98268.75
2022-11-15T08:21:33.243Z,98264.19
2022-11-15T08:23:58.333Z,98265.59
2022-11-15T08:26:23.730Z,98266.22
2022-11-15T08:28:49.890Z,98265.09
2022-11-15T08:31:19.587Z,98270.94
2022-11-15T08:33:44.691Z,98264.66
2022-11-15T08:36:14.533Z,98267.25
2022-11-15T08:38:42.457Z,98265.56
2022-11-15T08:41:09.977Z,98254.19
2022-11-15T08:43:36.778Z,98263.84
2022-11-15T08:46:03.718Z,98259.56
2022-11-15T08:48:29.557Z,98263.09
2022-11-15T08:50:58.692Z,98257.88
2022-11-15T08:53:23.503Z,98259.56
2022-11-15T08:55:51.731Z,98268.28
2022-11-15T08:58:17.514Z,98262.34
2022-11-15T09:00:42.785Z,98261.59
2022-11-15T09:03:10.658Z,98261.63
2022-11-15T09:05:39.512Z,98258.22
2022-11-15T09:08:19.106Z,98258.22
2022-11-15T09:10:55.858Z,98243.28
2022-11-15T09:13:22.125Z,98243.19
2022-11-15T09:15:48.366Z,98242.28
2022-11-15T09:18:14.177Z,98240.31
2022-11-15T09:20:39.755Z,98244.22
2022-11-15T09:23:06.890Z,98237.84
2022-11-15T09:25:34.192Z,98230.44
2022-11-15T09:28:03.371Z,98228.41
2022-11-15T09:30:29.537Z,98220.25
2022-11-15T09:32:55.997Z,98213.91
2022-11-15T09:35:21.546Z,98210.97
2022-11-15T09:37:49.098Z,98213.06
2022-11-15T09:40:23.813Z,98209.94
2022-11-15T09:43:31.256Z,98200.72
2022-11-15T09:46:20.016Z,98205.50
2022-11-15T09:48:58.289Z,98045.09
2022-11-15T09:51:38.261Z,98190.50
2022-11-15T09:54:37.578Z,98183.97
2022-11-15T09:56:26.476Z,98153.25
2022-11-15T09:58:50.873Z,98181.25
2022-11-15T10:00:57.775Z,98165.13
2022-11-15T10:03:16.696Z,98165.63
2022-11-15T10:05:29.907Z,98168.66
2022-11-15T10:07:55.625Z,98155.09
2022-11-15T10:10:19.448Z,98150.13
2022-11-15T10:12:31.171Z,98151.25
2022-11-15T10:14:41.235Z,98147.97
2022-11-15T10:17:33.888Z,98155.19
2022-11-15T10:20:05.290Z,98147.41
2022-11-15T10:22:34.293Z,98147.44
2022-11-15T10:24:47.614Z,98141.22
2022-11-15T10:26:54.920Z,98096.63
2022-11-15T10:29:04.595Z,98131.78
2022-11-15T10:31:28.726Z,98132.56
2022-11-15T10:33:38.978Z,98135.97
2022-11-15T10:35:47.158Z,98123.38
2022-11-15T10:37:54.898Z,98136.28
2022-11-15T10:40:10.657Z,98124.94
2022-11-15T10:42:29.659Z,98127.88
2022-11-15T10:44:47.440Z,98122.06
2022-11-15T10:47:37.857Z,98126.88
2022-11-15T10:50:00.616Z,98127.13
2022-11-15T10:52:25.298Z,98119.63
2022-11-15T10:54:46.358Z,98118.25
2022-11-15T10:56:57.268Z,98112.16
2022-11-15T10:59:04.027Z,98110.03
2022-11-15T11:01:19.628Z,98107.72
2022-11-15T11:03:42.056Z,98111.53
2022-11-15T11:05:48.909Z,98114.66
2022-11-15T11:08:03.665Z,98111.72
2022-11-15T11:12:52.518Z,98107.94
2022-11-15T11:14:59.524Z,98108.34
2022-11-15T11:17:20.788Z,98107.09
2022-11-15T11:19:59.246Z,98104.81
2022-11-15T11:22:21.348Z,98108.25
2022-11-15T11:24:40.843Z,98103.09
2022-11-15T11:27:07.204Z,98095.41
2022-11-15T11:29:47.109Z,98094.34
2022-11-15T11:32:11.702Z,98086.44
2022-11-15T11:34:49.071Z,98079.03
2022-11-15T11:37:14.890Z,98075.91
2022-11-15T11:39:40.146Z,98072.06
2022-11-15T11:42:00.637Z,98074.16
2022-11-15T11:44:32.107Z,97951.50
2022-11-15T11:46:55.202Z,98064.84
2022-11-15T11:49:12.722Z,98065.72
2022-11-15T11:51:31.576Z,98059.81
2022-11-15T11:53:50.251Z,98061.03
2022-11-15T11:56:06.556Z,98052.00
2022-11-15T11:58:27.293Z,98048.91
2022-11-15T12:00:45.722Z,98042.84
2022-11-15T12:03:12.132Z,98042.38
2022-11-15T12:05:35.146Z,98046.84
2022-11-15T12:07:51.078Z,98039.41
2022-11-15T12:10:07.031Z,98043.00
2022-11-15T12:12:22.966Z,98037.22
2022-11-15T12:14:51.040Z,98010.59
2022-11-15T12:16:57.856Z,98028.25
2022-11-15T12:19:08.020Z,98019.75
2022-11-15T12:21:30.412Z,98017.09
2022-11-15T12:23:50.606Z,98012.31
2022-11-15T12:26:09.018Z,98007.78
2022-11-15T12:28:30.061Z,98015.19
2022-11-15T12:30:53.133Z,98015.31
2022-11-15T12:33:06.753Z,98003.56
2022-11-15T12:35:34.639Z,98003.72
2022-11-15T12:37:59.569Z,98010.19
2022-11-15T12:40:31.293Z,98006.34
2022-11-15T12:42:58.186Z,98002.50
2022-11-15T12:45:06.604Z,97994.13
2022-11-15T12:47:29.822Z,97994.59
2022-11-15T12:49:53.072Z,97988.56
2022-11-15T12:52:12.449Z,97989.88
2022-11-15T12:54:58.143Z,97992.66
2022-11-15T12:57:45.670Z,97976.56
2022-11-15T12:59:56.272Z,97977.03
2022-11-15T13:02:06.795Z,97970.53
2022-11-15T13:04:28.112Z,97966.69
2022-11-15T13:06:48.086Z,97966.47
2022-11-15T13:08:55.191Z,97962.63
2022-11-15T13:11:22.725Z,97959.28
2022-11-15T13:13:49.785Z,97960.50
2022-11-15T13:16:00.602Z,97958.72
2022-11-15T13:18:38.721Z,97957.34
2022-11-15T13:20:49.748Z,97956.41
2022-11-15T13:23:03.664Z,97955.47
2022-11-15T13:25:22.962Z,97957.13
2022-11-15T13:27:29.773Z,97957.81
2022-11-15T13:29:39.340Z,97954.47
2022-11-15T13:31:49.547Z,97957.13
2022-11-15T13:34:01.174Z,97951.72
2022-11-15T13:36:18.644Z,97951.25
2022-11-15T13:38:32.715Z,97957.03
2022-11-15T13:40:42.051Z,97951.13
2022-11-15T13:42:48.673Z,97940.97
2022-11-15T13:45:06.390Z,97944.91
2022-11-15T13:47:24.229Z,97939.88
2022-11-15T13:49:35.601Z,97938.22
2022-11-15T13:51:52.378Z,97940.88
2022-11-15T13:54:06.527Z,97935.81
2022-11-15T13:56:14.240Z,97934.88
2022-11-15T13:58:24.262Z,97924.56
2022-11-15T14:00:44.605Z,97921.41
2022-11-15T14:02:51.798Z,97923.31
2022-11-15T14:05:06.722Z,97921.66
2022-11-15T14:07:23.127Z,97910.25
2022-11-15T14:09:41.969Z,97928.25
2022-11-15T14:11:58.762Z,97933.16
2022-11-15T14:14:19.003Z,97924.78
2022-11-15T14:16:39.512Z,97926.00
2022-11-15T14:18:51.147Z,97915.81
2022-11-15T14:21:11.663Z,97867.50
2022-11-15T14:23:29.653Z,97920.72
2022-11-15T14:25:38.936Z,97921.22
2022-11-15T14:27:48.589Z,97914.47
2022-11-15T14:29:57.090Z,97919.97
2022-11-15T14:32:20.549Z,97911.50
2022-11-15T14:34:27.597Z,97911.84
2022-11-15T14:36:34.197Z,97912.91
2022-11-15T14:38:41.993Z,97907.06
2022-11-15T14:40:48.984Z,97902.84
2022-11-15T14:42:55.849Z,97896.03
2022-11-15T14:45:06.450Z,97904.16
2022-11-15T14:47:15.876Z,97904.63
2022-11-15T14:49:22.474Z,97885.94
2022-11-15T14:51:30.164Z,97882.81
2022-11-15T14:53:37.375Z,97888.94
2022-11-15T14:55:44.161Z,97883.03
2022-11-15T14:57:51.725Z,97881.59
2022-11-15T14:59:58.556Z,97877.41
2022-11-15T15:02:25.635Z,97874.78
2022-11-15T15:04:33.068Z,97868.78
2022-11-15T15:06:39.728Z,97867.09
2022-11-15T15:08:46.552Z,97872.28
2022-11-15T15:10:54.246Z,97868.66
2022-11-15T15:13:00.852Z,97863.28
2022-11-15T15:15:18.090Z,97871.31
2022-11-15T15:17:28.407Z,97863.28
2022-11-15T15:19:35.004Z,97867.50
2022-11-15T15:21:42.241Z,97865.34
2022-11-15T15:23:49.698Z,97859.22
2022-11-15T15:25:56.400Z,97859.56
2022-11-15T15:28:03.977Z,97862.81
2022-11-15T15:30:13.560Z,97855.78
2022-11-15T15:32:20.256Z,97853.84
2022-11-15T15:34:29.751Z,97850.38
2022-11-15T15:36:37.219Z,97848.56
2022-11-15T15:38:43.968Z,97853.59
2022-11-15T15:40:51.656Z,97845.47
2022-11-15T15:43:00.000Z,97850.59
2022-11-15T15:45:12.094Z,97849.53
2022-11-15T15:47:24.487Z,97842.34
2022-11-15T15:49:34.679Z,97845.09
2022-11-15T15:51:41.263Z,97845.09
2022-11-15T15:53:47.903Z,97845.94
2022-11-15T15:55:55.296Z,97836.34
2022-11-15T15:58:03.370Z,97843.31
2022-11-15T16:00:13.188Z,97841.50
2022-11-15T16:02:20.631Z,97846.66
2022-11-15T16:04:27.639Z,97845.94
2022-11-15T16:06:45.340Z,97841.16
2022-11-15T16:09:13.392Z,97851.56
2022-11-15T16:11:19.552Z,97852.53
2022-11-15T16:13:26.144Z,97841.16
2022-11-15T16:15:36.366Z,97846.66
2022-11-15T16:17:51.125Z,97844.25
2022-11-15T16:19:57.740Z,97843.53
2022-11-15T16:22:09.514Z,97841.88
2022-11-15T16:24:16.428Z,97845.47
2022-11-15T16:26:28.185Z,97844.84
2022-11-15T16:28:37.344Z,97846.78
2022-11-15T16:30:44.196Z,97844.25
2022-11-15T16:32:51.694Z,97842.56
2022-11-15T16:34:59.336Z,97844.50
2022-11-15T16:37:22.774Z,97841.88
2022-11-15T16:39:31.017Z,97843.78
2022-11-15T16:41:38.668Z,97843.03
2022-11-15T16:43:45.332Z,97838.84
2022-11-15T16:45:54.465Z,97834.66
2022-11-15T16:48:05.867Z,97834.03
2022-11-15T16:50:28.216Z,97840.59
2022-11-15T16:52:37.811Z,97841.78
2022-11-15T16:54:45.231Z,97841.06
2022-11-15T16:56:51.800Z,97827.91
2022-11-15T16:59:00.751Z,97832.22
2022-11-15T17:01:09.301Z,97834.94
2022-11-15T17:03:15.887Z,97825.25
2022-11-15T17:05:27.459Z,97769.69
2022-11-15T17:07:38.009Z,97824.41
2022-11-15T17:09:44.572Z,97814.72
2022-11-15T17:11:51.223Z,97818.31
2022-11-15T17:14:02.679Z,97817.81
2022-11-15T17:16:12.693Z,97814.59
2022-11-15T17:18:22.429Z,97812.06
2022-11-15T17:20:30.683Z,97810.63
2022-11-15T17:22:40.744Z,97810.88
2022-11-15T17:24:47.315Z,97805.81
2022-11-15T17:26:54.731Z,97799.00
2022-11-15T17:29:03.248Z,97791.69
2022-11-15T17:31:12.109Z,97796.00
2022-11-15T17:33:19.546Z,97808.69
2022-11-15T17:35:26.129Z,97808.91
2022-11-15T17:37:32.755Z,97805.56
2022-11-15T17:39:43.071Z,97804.94
2022-11-15T17:41:50.384Z,97802.44
2022-11-15T17:44:00.154Z,97792.97
2022-11-15T17:46:14.859Z,97791.41
2022-11-15T17:48:21.453Z,97782.06
2022-11-15T17:50:28.297Z,97773.53
2022-11-15T17:52:35.947Z,97747.31
2022-11-15T17:54:45.310Z,97772.25
2022-11-15T17:56:51.978Z,97774.13
2022-11-15T17:59:05.705Z,97766.34
2022-11-15T18:01:22.231Z,97765.50
2022-11-15T18:03:28.978Z,97763.00
2022-11-15T18:05:36.517Z,97758.59
2022-11-15T18:07:43.128Z,97757.75
2022-11-15T18:09:52.556Z,97758.59
2022-11-15T18:12:00.010Z,97748.88
2022-11-15T18:14:13.944Z,97752.47
2022-11-15T18:16:25.472Z,97741.84
2022-11-15T18:18:34.376Z,97737.53
2022-11-15T18:20:41.409Z,97734.16
2022-11-15T18:22:47.996Z,97730.81
2022-11-15T18:24:58.205Z,97731.75
2022-11-15T18:27:08.754Z,97731.03
2022-11-15T18:29:15.347Z,97724.13
2022-11-15T18:31:25.767Z,97732.97
2022-11-15T18:33:37.562Z,97728.63
2022-11-15T18:35:44.170Z,97604.06
2022-11-15T18:37:51.587Z,97739.91
2022-11-15T18:40:03.074Z,97744.19
2022-11-15T18:42:10.007Z,97744.91
2022-11-15T18:44:18.839Z,97734.88
2022-11-15T18:46:29.643Z,97736.44
2022-11-15T18:48:37.686Z,97742.28
2022-11-15T18:50:45.111Z,97748.50
2022-11-15T18:52:51.732Z,97744.19
2022-11-15T18:54:58.320Z,97745.88
2022-11-15T18:57:09.770Z,97737.03
2022-11-15T18:59:18.213Z,97739.66
2022-11-15T19:01:27.291Z,97738.84
2022-11-15T19:03:36.655Z,97738.00
2022-11-15T19:05:43.424Z,97737.16
2022-11-15T19:07:51.979Z,97744.09
2022-11-15T19:09:59.490Z,97738.84
2022-11-15T19:12:10.246Z,97732.72
2022-11-15T19:14:19.703Z,97738.00
2022-11-15T19:16:29.310Z,97734.66
2022-11-15T19:18:37.242Z,97739.16
2022-11-15T19:20:43.829Z,97736.53
2022-11-15T19:22:51.263Z,97740.13
2022-11-15T19:24:58.381Z,97734.16
2022-11-15T19:27:05.660Z,97734.16
2022-11-15T19:29:17.429Z,97719.25
2022-11-15T19:31:26.677Z,97729.22
2022-11-15T19:33:34.297Z,97732.81
2022-11-15T19:35:41.909Z,97727.88
2022-11-15T19:37:48.508Z,97737.44
2022-11-15T19:39:55.587Z,97728.00
2022-11-15T19:42:03.456Z,97729.78
2022-11-15T19:44:10.238Z,97726.44
2022-11-15T19:46:23.664Z,97731.69
2022-11-15T19:48:32.916Z,97732.41
2022-11-15T19:50:40.901Z,97730.50
2022-11-15T19:52:47.529Z,97724.31
2022-11-15T19:54:54.973Z,97721.66
2022-11-15T19:57:03.638Z,97710.44
2022-11-15T19:59:11.850Z,97710.53
2022-11-15T20:01:25.156Z,97708.97
2022-11-15T20:03:32.816Z,97708.03
2022-11-15T20:05:39.782Z,97709.72
2022-11-15T20:07:47.522Z,97701.09
2022-11-15T20:09:54.559Z,97701.34
2022-11-15T20:12:01.119Z,97696.28
2022-11-15T20:14:11.872Z,97688.38
2022-11-15T20:16:24.894Z,97689.75
2022-11-15T20:18:33.584Z,97692.03
2022-11-15T20:20:41.268Z,97685.78
2022-11-15T20:22:47.861Z,97684.13
2022-11-15T20:24:54.626Z,97688.44
2022-11-15T20:27:02.589Z,97678.16
2022-11-15T20:29:10.266Z,97674.56
2022-11-15T20:31:19.274Z,97683.41
2022-11-15T20:33:30.943Z,97680.31
2022-11-15T20:35:37.478Z,97682.94
2022-11-15T20:37:44.150Z,97673.44
2022-11-15T20:39:51.810Z,97670.81
2022-11-15T20:41:58.476Z,97680.31
2022-11-15T20:44:07.249Z,97675.75
2022-11-15T20:46:16.042Z,97674.69
2022-11-15T20:48:22.753Z,97672.91
2022-11-15T20:50:46.909Z,97662.38
2022-11-15T20:52:54.610Z,97672.91
2022-11-15T20:55:03.597Z,97670.38
2022-11-15T20:57:10.606Z,97681.59
2022-11-15T20:59:18.167Z,97671.00
2022-11-15T21:01:26.077Z,97668.38
2022-11-15T21:03:32.745Z,97670.16
2022-11-15T21:05:47.228Z,97670.78
2022-11-15T21:07:53.869Z,97670.78
2022-11-15T21:10:15.898Z,97665.28
2022-11-15T21:12:23.403Z,97663.38
2022-11-15T21:14:30.334Z,97659.75
2022-11-15T21:16:36.938Z,97656.91
2022-11-15T21:18:44.447Z,97649.00
2022-11-15T21:20:54.064Z,97645.44
2022-11-15T21:23:00.624Z,97647.09
2022-11-15T21:25:09.804Z,97644.38
2022-11-15T21:27:16.537Z,97650.47
2022-11-15T21:29:23.148Z,97635.50
2022-11-15T21:31:32.170Z,97630.16
2022-11-15T21:33:39.111Z,97637.06
2022-11-15T21:35:45.671Z,97635.28
2022-11-15T21:37:57.134Z,97635.28
2022-11-15T21:40:03.877Z,97627.28
2022-11-15T21:42:10.459Z,97632.56
2022-11-15T21:44:17.938Z,97622.34
2022-11-15T21:46:24.563Z,97628.94
2022-11-15T21:48:34.804Z,97636.13
2022-11-15T21:50:43.854Z,97625.59
2022-11-15T21:52:50.376Z,97628.94
2022-11-15T21:55:00.405Z,97617.00
2022-11-15T21:57:09.045Z,97612.94
2022-11-15T21:59:15.690Z,97615.47
2022-11-15T22:01:38.218Z,97611.84
2022-11-15T22:03:46.849Z,97602.19
2022-11-15T22:05:53.419Z,97612.69
2022-11-15T22:07:59.976Z,97612.69
2022-11-15T22:10:12.937Z,97608.28
2022-11-15T22:12:19.632Z,97604.81
2022-11-15T22:14:26.263Z,97601.34
2022-11-15T22:16:34.025Z,97599.53
2022-11-15T22:18:41.613Z,97585.53
2022-11-15T22:20:57.148Z,97588.06
2022-11-15T22:23:06.030Z,97583.53
2022-11-15T22:25:15.793Z,97579.44
2022-11-15T22:27:22.587Z,97576.09
2022-11-15T22:29:30.689Z,97578.03
2022-11-15T22:31:38.722Z,97580.66
2022-11-15T22:33:45.548Z,97578.03
2022-11-15T22:35:53.902Z,97573.47
2022-11-15T22:38:00.668Z,97575.88
2022-11-15T22:40:11.298Z,97560.31
2022-11-15T22:42:23.907Z,97562.84
2022-11-15T22:44:30.983Z,97561.28
2022-11-15T22:46:37.897Z,97556.25
2022-11-15T22:48:45.570Z,97551.09
2022-11-15T22:50:53.354Z,97545.00
2022-11-15T22:53:00.439Z,97559.13
2022-11-15T22:55:11.204Z,97550.25
2022-11-15T22:57:20.920Z,97545.00
2022-11-15T22:59:28.149Z,97545.75
2022-11-15T23:01:35.869Z,97547.41
2022-11-15T23:03:42.726Z,97539.50
2022-11-15T23:05:49.783Z,97537.63
2022-11-15T23:07:57.741Z,97533.16
2022-11-15T23:10:18.427Z,97533.91
2022-11-15T23:12:43.790Z,97527.66
2022-11-15T23:14:51.540Z,97524.34
2022-11-15T23:16:58.872Z,97516.31
2022-11-15T23:19:10.874Z,97515.72
2022-11-15T23:21:42.743Z,97482.28
2022-11-15T23:23:46.761Z,97515.25
2022-11-15T23:26:03.419Z,97400.13
2022-11-15T23:28:14.247Z,97511.78
2022-11-15T23:30:37.386Z,97509.16
2022-11-15T23:33:00.190Z,97517.16
2022-11-15T23:35:11.095Z,97515.34
2022-11-15T23:37:19.551Z,97509.16
2022-11-15T23:39:26.680Z,97500.41
2022-11-15T23:41:34.393Z,97502.34
2022-11-15T23:43:44.068Z,97503.91
2022-11-15T23:45:50.981Z,97512.25
2022-11-15T23:48:01.433Z,97496.59
2022-11-15T23:50:11.268Z,97501.03
2022-11-15T23:52:18.912Z,97495.16
2022-11-15T23:54:26.632Z,97489.28
2022-11-15T23:56:33.640Z,97489.44
2022-11-15T23:58:44.044Z,97444.09
